Latest Weather Observations for Bega

IDN60801

Issued at 7:22 pm EST Wednesday 19 September 2018 (issued every 10 minutes, with the page automatically refreshed every 10 minutes)

About weather observations | Map of weather stations | Latest weather observations for NSW | Other Formats
Station Details ID: 069139 Name: BEGA AWS Lat: -36.67 Lon: 149.82 Height: 41.0 m
Data from the previous 72 hours. | See also: Recent months at Bega
Date/Time
EST
Temp
°C
App
Temp
°C
Dew
Point
°C
Rel
Hum
%
Delta-T
°C
Wind Press
QNH
hPa
Press
MSL
hPa
Rain since
9am
mm
Dir  Spd
km/h
Gust
km/h
Spd
kts
Gust
kts
19/07:00pm 13.1 8.0 2.9 50 4.5 SW 19 30 10 16 1013.0 1013.0 0.0
19/06:30pm 13.3 7.6 2.8 49 4.6 SW 22 28 12 15 1012.6 1012.6 0.0
19/06:00pm 13.3 7.6 3.1 50 4.5 SSW 22 33 12 18 1011.9 1011.9 0.0
19/05:30pm 14.2 8.9 3.1 47 5.0 SSW 20 30 11 16 1011.2 1011.2 0.0
19/05:00pm 15.1 9.2 3.9 47 5.2 SW 24 32 13 17 1010.1 1010.1 0.0
19/04:30pm 15.9 13.2 5.5 50 5.0 ENE 9 17 5 9 1009.3 1009.3 0.0
19/04:00pm 15.9 11.8 6.3 53 4.7 ESE 17 20 9 11 1008.9 1008.9 0.0
19/03:30pm 16.9 14.4 6.4 50 5.2 E 9 17 5 9 1008.5 1008.5 0.0
19/03:00pm 16.0 11.1 6.7 54 4.6 ESE 22 30 12 16 1008.0 1008.0 0.0
19/02:30pm 16.6 11.7 8.3 58 4.2 ESE 24 30 13 16 1007.6 1007.6 0.0
19/02:00pm 17.8 13.6 8.4 54 4.8 E 20 28 11 15 1007.5 1007.5 0.0
19/01:30pm 17.6 13.8 9.0 57 4.5 E 19 26 10 14 1007.4 1007.4 0.0
19/01:00pm 16.1 11.2 8.6 61 3.8 ESE 24 33 13 18 1007.7 1007.7 0.0
19/12:30pm 15.8 10.9 8.3 61 3.8 ESE 24 33 13 18 1007.7 1007.7 0.0
19/12:00pm 15.9 10.5 7.9 59 4.0 ESE 26 35 14 19 1007.5 1007.5 0.0
19/11:30am 16.8 11.5 8.5 58 4.3 SE 26 33 14 18 1007.4 1007.4 0.0
19/11:00am 17.5 13.6 7.0 50 5.3 E 17 28 9 15 1007.4 1007.4 0.0
19/10:30am 18.6 15.6 7.7 49 5.6 ESE 13 19 7 10 1007.7 1007.7 0.0
19/10:00am 18.2 14.5 7.9 51 5.3 E 17 20 9 11 1007.9 1007.9 0.0
19/09:30am 17.2 13.5 9.4 60 4.1 E 19 28 10 15 1008.0 1008.0 0.0
19/09:00am 16.5 15.1 9.0 61 3.9 SW 6 11 3 6 1008.5 1008.5 0.0
19/08:30am 15.1 13.8 7.6 61 3.7 ESE 4 7 2 4 1008.5 1008.5 0.0
19/08:00am 14.5 13.2 7.5 63 3.5 E 4 9 2 5 1008.2 1008.2 0.0
19/07:30am 13.3 11.9 7.3 67 2.9 NNE 4 7 2 4 1008.1 1008.1 0.0
19/07:00am 11.9 9.8 6.6 70 2.5 NNE 7 15 4 8 1007.8 1007.8 0.0
19/06:30am 8.6 5.1 1.5 61 2.9 N 9 15 5 8 1007.6 1007.6 0.0
19/06:00am 7.8 4.9 2.5 69 2.2 N 7 13 4 7 1007.3 1007.3 0.0
19/05:30am 7.8 3.9 1.2 63 2.7 NNW 11 20 6 11 1007.6 1007.6 0.0
19/05:00am 5.9 3.0 2.4 78 1.4 S 7 15 4 8 1007.6 1007.6 0.0
19/04:30am 7.6 5.6 2.1 68 2.3 N 2 7 1 4 1007.5 1007.5 0.0
19/04:00am 6.1 2.8 2.6 78 1.4 NE 9 13 5 7 1007.6 1007.6 0.0
19/03:30am 6.9 4.9 2.4 73 1.9 S 2 9 1 5 1007.6 1007.6 0.0
19/03:00am 7.4 5.5 2.7 72 2.0 W 2 7 1 4 1007.1 1007.1 0.0
19/02:30am 6.3 3.1 2.8 78 1.5 N 9 13 5 7 1007.7 1007.7 0.0
19/02:00am 8.1 5.3 3.0 70 2.2 NW 7 11 4 6 1007.6 1007.6 0.0
19/01:30am 7.2 5.0 3.4 77 1.6 S 4 11 2 6 1008.0 1008.0 0.0
19/01:00am 6.4 4.6 3.7 83 1.1 E 2 7 1 4 1008.0 1008.0 0.0
19/12:30am 7.6 5.5 4.0 78 1.6 WNW 4 7 2 4 1008.6 1008.6 0.0
19/12:00am 6.3 4.6 3.8 84 1.1 SSE 2 9 1 5 1008.7 1008.7 0.0
 
Date/Time
EST
Temp
°C
App
Temp
°C
Dew
Point
°C
Rel
Hum
%
Delta-T
°C
Wind Press
QNH
hPa
Press
MSL
hPa
Rain since
9am
mm
Dir  Spd
km/h
Gust
km/h
Spd
kts
Gust
kts
18/11:30pm 7.9 6.7 4.7 80 1.4 CALM 0 0 0 0 1009.2 1009.2 0.0
18/11:00pm 7.9 6.8 5.2 83 1.2 CALM 0 6 0 3 1009.3 1009.3 0.0
18/10:30pm 8.0 6.7 5.8 86 1.0 NW 2 7 1 4 1009.7 1009.7 0.0
18/10:00pm 11.0 10.2 6.4 73 2.2 CALM 0 6 0 3 1009.9 1009.9 0.0
18/09:30pm 10.1 9.6 7.7 85 1.2 CALM 0 0 0 0 1010.1 1010.1 0.0
18/09:00pm 11.3 10.7 7.6 78 1.8 CALM 0 0 0 0 1010.2 1010.2 0.0
18/08:30pm 10.8 9.7 7.1 78 1.8 NW 2 7 1 4 1010.2 1010.2 0.0
18/08:00pm 11.6 10.4 8.1 79 1.7 ENE 4 9 2 5 1010.1 1010.1 0.0
18/07:30pm 14.0 13.4 7.5 65 3.2 CALM 0 6 0 3 1010.2 1010.2 0.0
18/07:00pm 15.5 13.8 8.5 63 3.6 N 7 9 4 5 1009.7 1009.7 0.0
18/06:30pm 16.7 15.3 8.7 59 4.1 SSE 6 9 3 5 1009.3 1009.3 0.0
18/06:00pm 17.7 16.0 8.3 54 4.8 SSE 7 11 4 6 1008.9 1008.9 0.0
18/05:30pm 18.5 16.8 8.2 51 5.3 S 7 11 4 6 1008.5 1008.5 0.0
18/05:00pm 20.7 18.2 6.6 40 7.2 NE 9 15 5 8 1008.2 1008.2 0.0
18/04:30pm 21.5 18.2 6.2 37 7.7 ENE 13 17 7 9 1008.0 1008.0 0.0
18/04:00pm 21.6 17.5 4.2 32 8.5 ENE 15 20 8 11 1008.1 1008.1 0.0
18/03:30pm 22.1 17.5 6.3 36 8.0 E 20 24 11 13 1008.4 1008.4 0.0
18/03:00pm 22.6 18.5 4.2 30 9.0 ENE 15 20 8 11 1008.9 1008.9 0.0
18/02:30pm 23.1 18.1 3.6 28 9.5 NE 19 24 10 13 1009.1 1009.1 0.0
18/02:00pm 22.6 17.3 1.6 25 9.8 ENE 19 26 10 14 1009.8 1009.8 0.0
18/01:30pm 22.4 16.3 2.5 27 9.4 NE 24 30 13 16 1010.0 1010.0 0.0
18/01:00pm 23.0 17.3 0.8 23 10.2 NE 20 26 11 14 1010.6 1010.6 0.0
18/12:30pm 22.8 18.3 2.3 26 9.7 ENE 15 22 8 12 1011.4 1011.4 0.0
18/12:00pm 23.0 18.9 2.5 26 9.8 ENE 13 20 7 11 1012.3 1012.3 0.0
18/11:30am 21.7 17.7 0.3 24 9.7 NE 11 19 6 10 1012.8 1012.8 0.0
18/11:00am 21.0 17.2 1.8 28 8.9 E 11 19 6 10 1013.7 1013.7 0.0
18/10:30am 19.8 16.8 4.3 36 7.5 ENE 9 15 5 8 1014.2 1014.2 0.0
18/10:00am 18.1 15.8 5.7 44 6.1 E 7 11 4 6 1014.7 1014.7 0.0
18/09:30am 15.1 13.9 4.5 49 4.9 CALM 0 6 0 3 1015.2 1015.3 0.0
18/09:00am 12.3 10.4 5.0 61 3.4 E 4 7 2 4 1015.7 1015.7 0.0
18/08:30am 9.6 7.3 5.6 76 1.8 NE 7 11 4 6 1016.0 1016.0 0.0
18/08:00am 7.2 6.3 6.1 93 0.5 CALM 0 0 0 0 1016.2 1016.2 0.0
18/07:30am 4.5 3.3 4.4 99 0.0 CALM 0 0 0 0 1016.3 1016.3 0.0
18/07:00am 3.3 1.8 3.2 99 0.0 CALM 0 0 0 0 1016.2 1016.2 0.0
18/06:30am 2.4 -0.4 2.3 99 0.0 SSW 6 7 3 4 1016.2 1016.2 0.0
18/06:00am 2.5 0.5 2.4 99 0.0 WNW 2 7 1 4 1015.9 1015.9 0.0
18/05:30am 2.9 1.4 2.8 99 0.0 CALM 0 6 0 3 1015.8 1015.8 0.0
18/05:00am 2.7 -0.2 2.6 99 0.0 SSW 7 11 4 6 1015.7 1015.7 0.0
18/04:30am 3.1 1.6 2.8 98 0.1 CALM 0 0 0 0 1015.3 1015.4 0.0
18/04:00am 3.3 1.8 3.0 98 0.1 CALM 0 0 0 0 1015.2 1015.3 0.0
18/03:30am 3.5 0.9 3.1 97 0.2 NE 6 7 3 4 1015.5 1015.6 0.0
18/03:00am 3.8 1.2 3.1 95 0.3 SSW 6 11 3 6 1016.0 1016.0 0.0
18/02:30am 4.7 2.6 4.0 95 0.3 WSW 4 7 2 4 1016.4 1016.4 0.0
18/02:00am 4.9 3.6 3.9 93 0.4 CALM 0 0 0 0 1016.5 1016.5 0.0
18/01:30am 5.4 2.8 4.4 93 0.4 SSW 7 11 4 6 1016.8 1016.8 0.0
18/01:00am 5.9 4.7 4.5 91 0.6 CALM 0 0 0 0 1017.1 1017.1 0.0
18/12:30am 5.7 3.2 4.7 93 0.4 SW 7 9 4 5 1017.1 1017.1 0.0
18/12:00am 5.8 3.5 4.9 94 0.4 SSW 6 9 3 5 1017.4 1017.4 0.0
 
Date/Time
EST
Temp
°C
App
Temp
°C
Dew
Point
°C
Rel
Hum
%
Delta-T
°C
Wind Press
QNH
hPa
Press
MSL
hPa
Rain since
9am
mm
Dir  Spd
km/h
Gust
km/h
Spd
kts
Gust
kts
17/11:30pm 5.8 4.6 4.6 92 0.5 CALM 0 9 0 5 1017.6 1017.6 0.0
17/11:00pm 6.4 3.9 5.0 91 0.6 S 7 9 4 5 1017.7 1017.7 0.0
17/10:30pm 7.9 6.4 5.2 83 1.2 NW 2 9 1 5 1018.0 1018.0 0.0
17/10:00pm 9.0 8.3 6.8 86 1.0 CALM 0 6 0 3 1018.3 1018.3 0.0
17/09:30pm 11.3 8.2 7.2 76 2.0 NW 13 19 7 10 1018.4 1018.4 0.0
17/09:00pm 11.7 9.0 7.2 74 2.2 NNW 11 15 6 8 1018.6 1018.6 0.0
17/08:30pm 12.4 9.4 7.5 72 2.4 NNW 13 17 7 9 1018.6 1018.6 0.0
17/08:00pm 12.5 10.2 7.6 72 2.4 NNW 9 13 5 7 1018.5 1018.5 0.0
17/07:30pm 12.8 10.1 7.3 69 2.7 N 11 17 6 9 1018.7 1018.7 0.0
17/07:00pm 12.6 10.6 6.4 66 2.9 NNE 6 9 3 5 1018.4 1018.4 0.0
17/06:30pm 12.9 10.0 6.7 66 3.0 NE 11 13 6 7 1018.3 1018.3 0.0
17/06:00pm 13.1 10.2 6.7 65 3.1 NNE 11 15 6 8 1018.2 1018.2 0.0
17/05:30pm 14.2 10.4 7.5 64 3.3 NE 17 22 9 12 1017.9 1017.9 0.0
17/05:00pm 15.0 10.2 7.3 60 3.8 ENE 22 30 12 16 1017.7 1017.7 0.0
17/04:30pm 15.8 10.9 7.1 56 4.3 ENE 22 30 12 16 1017.6 1017.6 0.0
17/04:00pm 16.3 10.9 6.4 52 4.8 NE 24 32 13 17 1017.5 1017.5 0.0
17/03:30pm 16.9 10.4 6.4 50 5.2 NE 30 37 16 20 1017.6 1017.6 0.0
17/03:00pm 17.1 11.4 6.6 50 5.2 NE 26 35 14 19 1018.0 1018.0 0.0
17/02:30pm 17.4 11.2 6.0 47 5.6 ENE 28 37 15 20 1018.1 1018.1 0.0
17/02:00pm 18.0 12.3 4.9 42 6.3 ENE 24 33 13 18 1018.4 1018.4 0.0
17/01:30pm 18.3 13.2 4.1 39 6.7 ENE 20 33 11 18 1018.7 1018.7 0.0
17/01:00pm 18.6 14.1 4.4 39 6.8 ESE 17 26 9 14 1019.1 1019.1 0.0
17/12:30pm 19.2 15.3 3.4 35 7.4 ESE 13 22 7 12 1019.7 1019.7 0.0
17/12:00pm 17.6 13.3 0.7 32 7.4 E 13 22 7 12 1020.5 1020.5 0.0
17/11:30am 17.1 13.2 1.1 34 7.1 NE 11 17 6 9 1021.4 1021.4 0.0
17/11:00am 16.3 12.0 0.8 35 6.7 ENE 13 20 7 11 1022.0 1022.0 0.0
17/10:30am 15.4 11.9 1.5 39 6.1 E 9 13 5 7 1022.6 1022.6 0.0
17/10:00am 13.5 10.6 1.5 44 5.1 ENE 6 11 3 6 1023.1 1023.1 0.0
17/09:30am 10.0 7.4 0.9 53 3.7 S 4 7 2 4 1023.6 1023.6 0.0
17/09:00am 7.7 4.6 0.2 59 2.9 ESE 6 9 3 5 1024.1 1024.1 0.0
17/08:30am 6.0 2.9 0.1 66 2.3 E 6 7 3 4 1024.3 1024.3 0.0
17/08:00am 3.6 0.4 -0.4 75 1.5 NE 6 7 3 4 1024.6 1024.6 0.0
17/07:30am 1.4 -0.8 -1.2 83 0.9 CALM 0 0 0 0 1024.6 1024.6 0.0
17/07:00am -0.1 -2.2 -1.1 93 0.3 CALM 0 0 0 0 1024.5 1024.5 0.0
17/06:30am -2.3 -4.7 -3.1 94 0.2 CALM 0 0 0 0 1024.5 1024.5 0.0
17/06:00am -2.6 -5.1 -3.7 92 0.2 CALM 0 0 0 0 1024.2 1024.2 0.0
17/05:30am -2.1 -4.5 -3.4 91 0.3 CALM 0 0 0 0 1024.1 1024.1 0.0
17/05:00am -1.9 -4.3 -3.2 91 0.3 CALM 0 0 0 0 1023.9 1023.9 0.0
17/04:30am -1.4 -3.7 -2.7 91 0.4 CALM 0 0 0 0 1023.7 1023.7 0.0
17/04:00am -1.6 -4.0 -3.2 89 0.5 CALM 0 0 0 0 1023.6 1023.6 0.0
17/03:30am -0.4 -2.7 -2.0 89 0.5 CALM 0 0 0 0 1023.3 1023.3 0.0
17/03:00am -0.4 -2.7 -2.4 86 0.7 CALM 0 0 0 0 1023.3 1023.3 0.0
17/02:30am 1.0 -1.2 -1.9 81 1.1 CALM 0 0 0 0 1023.4 1023.4 0.0
17/02:00am 0.6 -1.6 -1.8 84 0.9 CALM 0 0 0 0 1023.7 1023.7 0.0
17/01:30am 0.9 -1.4 -2.0 81 1.1 CALM 0 0 0 0 1023.8 1023.8 0.0
17/01:00am 0.8 -1.5 -2.1 81 1.0 CALM 0 0 0 0 1023.7 1023.7 0.0
17/12:30am 0.8 -1.4 -1.9 82 1.0 CALM 0 0 0 0 1023.7 1023.7 0.0
17/12:00am 1.0 -1.2 -1.9 81 1.0 CALM 0 6 0 3 1023.7 1023.7 0.0
 
Date/Time
EST
Temp
°C
App
Temp
°C
Dew
Point
°C
Rel
Hum
%
Delta-T
°C
Wind Press
QNH
hPa
Press
MSL
hPa
Rain since
9am
mm
Dir  Spd
km/h
Gust
km/h
Spd
kts
Gust
kts
16/11:30pm 1.5 -1.5 -1.6 80 1.1 SE 4 7 2 4 1023.7 1023.7 0.0
16/11:00pm 2.6 -0.7 -1.4 75 1.4 NNW 6 7 3 4 1023.6 1023.6 0.0
16/10:30pm 3.5 0.9 -1.4 70 1.8 WNW 2 7 1 4 1023.6 1023.6 0.0
16/10:00pm 3.3 1.1 -1.8 69 1.8 CALM 0 2 0 1 1023.5 1023.5 0.0
16/09:30pm 5.2 2.3 -1.3 63 2.4 WSW 4 7 2 4 1023.3 1023.3 0.0
16/09:00pm 5.1 1.7 -1.8 61 2.5 SSW 6 7 3 4 1023.0 1023.0 0.0
16/08:30pm 5.5 3.3 -1.9 59 2.7 CALM 0 0 0 0 1022.7 1022.7 0.0
16/08:00pm 7.1 4.1 -1.8 53 3.3 WSW 4 6 2 3 1022.3 1022.3 0.0
16/07:30pm 9.1 6.1 -1.6 47 4.1 NW 4 7 2 4 1021.9 1021.9 0.0

Other Formats:

Comma delimited format used in spreadsheet applications
http://www.bom.gov.au/fwo/IDN60801/IDN60801.95931.axf

JavaScript Object Notation format (JSON) in row-major order
http://www.bom.gov.au/fwo/IDN60801/IDN60801.95931.json